Time;durP1;ratioP1;P1;durP2;ratioP2;P2;SDS_P1;SDS_P2;PMS_P1;PMS_P2;Temp;Humidity;BMP_temperature;BMP_pressure;BME280_temperature;BME280_humidity;BME280_pressure;Samples;Min_cycle;Max_cycle;Signal;HPM_P1;HPM_P2
2023/08/05 00:01:10;;;;;;;7.45;2.92;;;17.10;99.90;;;;;;5041597;28;20071;-77
2023/08/05 00:03:36;;;;;;;6.88;2.85;;;17.10;99.90;;;;;;5053400;28;20040;-75
2023/08/05 00:06:02;;;;;;;7.90;3.28;;;17.10;99.90;;;;;;5033194;28;20434;-76
2023/08/05 00:08:27;;;;;;;8.30;3.00;;;17.00;99.90;;;;;;5056253;28;20041;-76
2023/08/05 00:10:53;;;;;;;8.10;3.53;;;17.00;99.90;;;;;;5073914;28;20056;-76
2023/08/05 00:13:19;;;;;;;10.38;3.65;;;17.00;99.90;;;;;;5057494;28;20037;-76
2023/08/05 00:15:45;;;;;;;6.63;3.20;;;17.00;99.90;;;;;;5053304;28;20142;-76
2023/08/05 00:18:10;;;;;;;7.68;3.58;;;16.90;99.90;;;;;;5052013;28;20045;-77
2023/08/05 00:20:36;;;;;;;9.63;3.55;;;16.90;99.90;;;;;;5037816;28;20406;-76
2023/08/05 00:23:03;;;;;;;5.85;2.88;;;16.90;99.90;;;;;;5038679;28;20060;-76
2023/08/05 00:25:28;;;;;;;9.35;3.42;;;16.90;99.90;;;;;;5075670;28;20036;-76
2023/08/05 00:27:54;;;;;;;7.80;3.90;;;16.90;99.90;;;;;;5052977;28;20053;-77
2023/08/05 00:30:20;;;;;;;9.02;3.58;;;16.90;99.90;;;;;;5049745;28;20041;-76
2023/08/05 00:32:46;;;;;;;9.13;4.00;;;16.90;99.90;;;;;;5040079;28;20136;-78
2023/08/05 00:35:11;;;;;;;9.52;3.72;;;16.90;99.90;;;;;;5050171;28;20477;-77
2023/08/05 00:37:37;;;;;;;8.15;3.80;;;16.80;99.90;;;;;;5040341;28;20401;-77
2023/08/05 00:40:04;;;;;;;13.27;3.47;;;16.80;99.90;;;;;;5039038;28;20059;-75
2023/08/05 00:42:30;;;;;;;8.80;4.07;;;16.80;99.90;;;;;;5022692;28;20090;-76
2023/08/05 00:44:56;;;;;;;6.93;3.78;;;16.70;99.90;;;;;;5052376;28;20103;-76
2023/08/05 00:47:22;;;;;;;8.70;3.67;;;16.70;99.90;;;;;;5067270;28;20048;-76
2023/08/05 00:49:49;;;;;;;10.05;3.70;;;16.70;99.90;;;;;;5072389;28;20048;-78
2023/08/05 00:52:18;;;;;;;9.45;3.92;;;16.60;99.90;;;;;;5074068;28;20075;-75
2023/08/05 00:54:44;;;;;;;12.60;4.45;;;16.60;99.90;;;;;;5072112;28;20519;-76
2023/08/05 00:57:11;;;;;;;9.35;3.85;;;16.60;99.90;;;;;;5039734;28;20144;-76
2023/08/05 00:59:37;;;;;;;7.22;4.20;;;16.50;99.90;;;;;;5056557;28;20097;-78
2023/08/05 01:02:03;;;;;;;7.80;3.45;;;16.50;99.90;;;;;;5021894;28;20052;-77
2023/08/05 01:04:29;;;;;;;7.45;4.18;;;16.50;99.90;;;;;;5057063;28;20112;-77
2023/08/05 01:06:56;;;;;;;8.27;3.65;;;16.50;99.90;;;;;;5055999;28;20044;-77
2023/08/05 01:09:22;;;;;;;6.00;3.30;;;16.50;99.90;;;;;;5049747;28;20049;-76
2023/08/05 01:11:48;;;;;;;9.18;3.90;;;16.40;99.90;;;;;;5021144;28;20387;-79
2023/08/05 01:14:14;;;;;;;6.55;4.07;;;16.40;99.90;;;;;;5034725;28;20056;-76
2023/08/05 01:16:40;;;;;;;14.18;4.07;;;16.40;99.90;;;;;;5031372;28;20060;-75
2023/08/05 01:19:23;;;;;;;9.05;4.00;;;16.40;99.90;;;;;;5051994;28;20075;-77
2023/08/05 01:22:15;;;;;;;7.22;3.83;;;16.40;99.90;;;;;;5022747;28;20052;-79
2023/08/05 01:24:58;;;;;;;15.00;4.45;;;16.30;99.90;;;;;;5022917;28;20482;-76
2023/08/05 01:27:24;;;;;;;11.05;4.15;;;16.30;99.90;;;;;;5060556;28;20102;-76
2023/08/05 01:29:50;;;;;;;8.02;4.07;;;16.20;99.90;;;;;;5049124;28;20036;-75
2023/08/05 01:32:18;;;;;;;7.57;4.00;;;16.20;99.90;;;;;;5062642;28;20098;-74
2023/08/05 01:34:45;;;;;;;7.03;3.90;;;16.20;99.90;;;;;;5054678;28;20059;-77
2023/08/05 01:37:11;;;;;;;9.55;4.10;;;16.10;99.90;;;;;;5034598;28;20041;-76
2023/08/05 01:39:36;;;;;;;9.52;4.00;;;16.10;99.90;;;;;;5038167;28;20379;-76
2023/08/05 01:42:02;;;;;;;9.40;4.30;;;16.00;99.90;;;;;;5055415;28;20051;-77
2023/08/05 01:44:28;;;;;;;5.78;3.63;;;16.00;99.90;;;;;;5051173;28;20509;-76
2023/08/05 01:46:53;;;;;;;10.23;4.03;;;15.90;99.90;;;;;;5048505;28;20055;-78
2023/08/05 01:49:19;;;;;;;9.38;4.18;;;15.90;99.90;;;;;;5046651;28;20066;-77
2023/08/05 01:51:45;;;;;;;7.85;4.50;;;15.80;99.90;;;;;;5032589;28;20564;-77
2023/08/05 01:54:10;;;;;;;10.75;3.95;;;15.80;99.90;;;;;;5072608;28;20048;-76
2023/08/05 01:56:36;;;;;;;6.05;3.55;;;15.70;99.90;;;;;;5054651;28;20502;-77
2023/08/05 01:59:02;;;;;;;6.82;3.50;;;15.70;99.90;;;;;;5011138;28;20202;-77
2023/08/05 02:01:44;;;;;;;8.40;3.97;;;15.70;99.90;;;;;;5038179;28;20041;-77
2023/08/05 02:04:11;;;;;;;10.05;4.10;;;15.60;99.90;;;;;;5054838;28;20036;-77
2023/08/05 02:06:37;;;;;;;7.80;4.15;;;15.60;99.90;;;;;;5036589;28;20431;-77
2023/08/05 02:09:03;;;;;;;7.32;4.28;;;15.50;99.90;;;;;;5035933;28;20074;-77
2023/08/05 02:11:29;;;;;;;9.52;4.45;;;15.50;99.90;;;;;;5055423;28;20430;-75
2023/08/05 02:13:54;;;;;;;10.85;4.00;;;15.50;99.90;;;;;;5043065;28;20052;-77
2023/08/05 02:16:20;;;;;;;9.25;4.47;;;15.40;99.90;;;;;;5057941;28;20036;-77
2023/08/05 02:18:46;;;;;;;8.98;4.18;;;15.40;99.90;;;;;;5039730;28;20020;-76
2023/08/05 02:21:12;;;;;;;7.68;4.18;;;15.40;99.90;;;;;;5006588;28;20051;-76
2023/08/05 02:23:37;;;;;;;7.47;4.43;;;15.40;99.90;;;;;;5054616;28;20040;-75
2023/08/05 02:26:03;;;;;;;11.13;4.53;;;15.40;99.90;;;;;;5024132;28;20462;-76
2023/08/05 02:28:29;;;;;;;10.88;4.63;;;15.40;99.90;;;;;;5058638;28;20045;-76
2023/08/05 02:30:54;;;;;;;8.90;4.30;;;15.30;99.90;;;;;;5039606;28;20137;-76
2023/08/05 02:33:20;;;;;;;7.47;4.45;;;15.30;99.90;;;;;;5026757;28;20049;-76
2023/08/05 02:35:46;;;;;;;7.93;4.80;;;15.30;99.90;;;;;;5038782;28;20415;-76
2023/08/05 02:38:13;;;;;;;11.00;4.53;;;15.20;99.90;;;;;;5042108;28;20058;-76
2023/08/05 02:40:39;;;;;;;10.77;4.70;;;15.20;99.90;;;;;;5039971;28;20084;-77
2023/08/05 02:43:05;;;;;;;10.68;4.70;;;15.20;99.90;;;;;;5058172;28;20057;-76
2023/08/05 02:45:31;;;;;;;9.50;4.40;;;15.20;99.90;;;;;;5056259;28;20505;-76
2023/08/05 02:47:57;;;;;;;8.90;4.32;;;15.20;99.90;;;;;;5054609;28;20110;-76
2023/08/05 02:50:23;;;;;;;8.98;4.40;;;15.10;99.90;;;;;;5029833;28;20061;-77
2023/08/05 02:52:48;;;;;;;9.18;5.00;;;15.10;99.90;;;;;;5047566;28;20038;-77
2023/08/05 02:55:14;;;;;;;8.57;4.32;;;15.10;99.90;;;;;;5044199;28;20152;-75
2023/08/05 02:57:40;;;;;;;6.78;4.45;;;15.10;99.90;;;;;;5021169;28;20502;-77
2023/08/05 03:00:06;;;;;;;7.68;4.72;;;15.10;99.90;;;;;;5035970;28;20049;-77
2023/08/05 03:02:33;;;;;;;8.00;4.55;;;15.00;99.90;;;;;;5054457;28;20199;-77
2023/08/05 03:04:58;;;;;;;9.73;5.03;;;15.00;99.90;;;;;;5050344;28;20403;-77
2023/08/05 03:07:24;;;;;;;10.07;5.10;;;15.00;99.90;;;;;;5016057;28;20210;-77
2023/08/05 03:09:50;;;;;;;7.43;4.72;;;15.00;99.90;;;;;;5054821;28;20048;-78
2023/08/05 03:12:15;;;;;;;6.53;4.47;;;15.00;99.90;;;;;;5036915;28;20394;-77
2023/08/05 03:14:41;;;;;;;8.60;4.32;;;15.00;99.90;;;;;;5052257;28;20526;-76
2023/08/05 03:17:07;;;;;;;9.70;4.45;;;15.00;99.90;;;;;;5032050;28;20051;-80
2023/08/05 03:19:33;;;;;;;10.30;4.47;;;15.00;99.90;;;;;;5026534;28;20049;-76
2023/08/05 03:21:58;;;;;;;7.25;4.68;;;15.00;99.90;;;;;;5027252;28;20060;-76
2023/08/05 03:24:24;;;;;;;9.18;4.55;;;15.00;99.90;;;;;;5020076;28;20132;-75
2023/08/05 03:26:49;;;;;;;8.45;4.75;;;15.00;99.90;;;;;;5044045;28;20037;-77
2023/08/05 03:29:15;;;;;;;10.73;5.20;;;15.10;99.90;;;;;;5052928;28;20053;-76
2023/08/05 03:31:41;;;;;;;7.75;4.55;;;15.10;99.90;;;;;;5053928;28;20047;-75
2023/08/05 03:34:06;;;;;;;8.30;4.22;;;15.10;99.90;;;;;;5017900;28;20053;-76
2023/08/05 03:36:32;;;;;;;8.32;4.00;;;15.20;99.90;;;;;;5050713;28;20041;-77
2023/08/05 03:38:58;;;;;;;7.00;4.00;;;15.20;99.90;;;;;;5050572;28;20056;-76
2023/08/05 03:41:24;;;;;;;7.15;4.25;;;15.20;99.90;;;;;;5051050;28;20037;-76
2023/08/05 03:43:49;;;;;;;8.02;4.10;;;15.20;99.90;;;;;;5010636;28;20503;-76
2023/08/05 03:46:15;;;;;;;10.70;4.07;;;15.20;99.90;;;;;;5033557;28;20059;-77
2023/08/05 03:48:41;;;;;;;10.35;3.80;;;15.20;99.90;;;;;;5005108;28;20069;-77
2023/08/05 03:51:06;;;;;;;8.88;4.07;;;15.20;99.90;;;;;;5055665;28;20086;-77
2023/08/05 03:53:33;;;;;;;9.23;4.30;;;15.20;99.90;;;;;;5036915;28;20195;-76
2023/08/05 03:55:59;;;;;;;10.38;4.15;;;15.20;99.90;;;;;;5026344;28;20128;-77
2023/08/05 03:58:26;;;;;;;7.50;4.00;;;15.20;99.90;;;;;;5025415;28;21423;-76
2023/08/05 04:00:51;;;;;;;7.50;3.88;;;15.20;99.90;;;;;;5017710;28;20108;-78
2023/08/05 04:03:17;;;;;;;8.40;4.00;;;15.20;99.90;;;;;;5004051;28;20139;-77
2023/08/05 04:05:43;;;;;;;12.07;4.20;;;15.20;99.90;;;;;;5022623;28;20049;-77
2023/08/05 04:08:09;;;;;;;6.93;3.92;;;15.20;99.90;;;;;;5017330;28;20064;-76
2023/08/05 04:10:36;;;;;;;8.32;3.83;;;15.10;99.90;;;;;;4993266;28;20088;-77
2023/08/05 04:13:03;;;;;;;10.30;3.67;;;15.10;99.90;;;;;;5036123;28;20050;-75
2023/08/05 04:15:30;;;;;;;7.50;3.47;;;15.10;99.90;;;;;;5011816;28;20061;-76
2023/08/05 04:18:00;;;;;;;8.18;3.50;;;15.10;99.90;;;;;;5000991;28;20053;-75
2023/08/05 04:20:27;;;;;;;8.32;3.50;;;15.10;99.90;;;;;;5030820;28;20052;-76
2023/08/05 04:22:53;;;;;;;7.72;3.22;;;15.10;99.90;;;;;;5004173;28;20094;-76
2023/08/05 04:25:19;;;;;;;8.80;4.13;;;15.10;99.90;;;;;;5024016;28;20051;-77
2023/08/05 04:27:45;;;;;;;6.82;3.33;;;15.10;99.90;;;;;;5025192;28;20391;-76
2023/08/05 04:30:11;;;;;;;7.78;3.40;;;15.20;99.90;;;;;;5059146;28;20055;-75
2023/08/05 04:32:36;;;;;;;8.90;3.53;;;15.20;99.90;;;;;;5039076;28;20028;-76
2023/08/05 04:35:03;;;;;;;6.20;3.42;;;15.20;99.90;;;;;;5034897;28;20107;-77
2023/08/05 04:37:29;;;;;;;11.32;3.70;;;15.20;99.90;;;;;;5012598;28;20081;-76
2023/08/05 04:39:54;;;;;;;7.93;3.20;;;15.30;99.90;;;;;;5009194;28;20081;-78
2023/08/05 04:42:20;;;;;;;7.15;3.60;;;15.20;99.90;;;;;;5004778;28;20041;-78
2023/08/05 04:44:46;;;;;;;8.13;3.80;;;15.30;99.90;;;;;;5031289;28;20045;-76
2023/08/05 04:47:12;;;;;;;8.82;3.70;;;15.30;99.90;;;;;;5015579;28;20101;-75
2023/08/05 04:49:41;;;;;;;10.07;3.90;;;15.40;99.90;;;;;;5054437;28;20048;-75
2023/08/05 04:52:08;;;;;;;6.45;3.58;;;15.80;99.90;;;;;;5048654;28;20073;-77
2023/08/05 04:54:41;;;;;;;8.93;3.22;;;16.40;99.90;;;;;;5052704;28;20107;-77
2023/08/05 04:57:07;;;;;;;10.85;2.97;;;17.00;99.90;;;;;;5052657;28;20104;-76
2023/08/05 04:59:33;;;;;;;9.05;3.92;;;17.40;99.90;;;;;;5050259;28;20080;-75
2023/08/05 05:01:59;;;;;;;6.85;3.17;;;17.60;99.90;;;;;;5060068;28;20041;-77
2023/08/05 05:04:25;;;;;;;7.40;3.25;;;17.50;99.90;;;;;;5076928;28;20056;-76
2023/08/05 05:06:51;;;;;;;10.55;3.72;;;17.40;99.90;;;;;;5056847;28;20068;-76
2023/08/05 05:09:17;;;;;;;7.07;2.97;;;17.20;99.90;;;;;;5074523;28;20052;-76
2023/08/05 05:11:43;;;;;;;6.72;3.40;;;17.00;99.90;;;;;;5073562;28;20084;-77
2023/08/05 05:14:08;;;;;;;;;;;16.90;99.90;;;;;;5037500;28;20041;-76
2023/08/05 05:16:34;;;;;;;;;;;16.80;99.90;;;;;;5048851;28;19931;-77
2023/08/05 05:18:59;;;;;;;;;;;16.70;99.90;;;;;;5048536;28;20429;-77
2023/08/05 05:21:25;;;;;;;;;;;16.60;99.90;;;;;;5061560;28;19920;-76
2023/08/05 05:23:51;;;;;;;;;;;16.60;99.90;;;;;;5048365;28;19932;-76
2023/08/05 05:26:16;;;;;;;;;;;16.60;99.90;;;;;;5036101;28;19976;-77
2023/08/05 05:28:42;;;;;;;;;;;16.50;99.90;;;;;;5036936;28;19920;-77
2023/08/05 05:31:07;;;;;;;;;;;16.40;99.90;;;;;;5048685;28;19999;-76
2023/08/05 05:33:33;;;;;;;;;;;16.40;99.90;;;;;;5051406;28;20362;-77
2023/08/05 05:35:58;;;;;;;;;;;16.50;99.90;;;;;;5037577;28;19928;-78
2023/08/05 05:38:24;;;;;;;;;;;16.70;99.90;;;;;;5047695;28;19924;-79
2023/08/05 05:40:51;;;;;;;;;;;17.40;99.90;;;;;;5036777;28;19920;-77
2023/08/05 05:43:17;;;;;;;;;;;18.30;99.90;;;;;;5024772;28;19961;-77
2023/08/05 05:45:42;;;;;;;;;;;19.30;99.90;;;;;;5050557;28;19978;-76
2023/08/05 05:48:08;;;;;;;;;;;20.20;99.90;;;;;;5044923;28;19921;-78
2023/08/05 05:50:37;;;;;;;;;;;20.70;99.90;;;;;;5020731;28;19948;-78
2023/08/05 05:53:03;;;;;;;;;;;21.20;99.90;;;;;;5019193;28;19936;-76
2023/08/05 05:55:28;;;;;;;;;;;21.40;99.90;;;;;;5044332;28;19920;-80
2023/08/05 05:57:54;;;;;;;;;;;21.50;99.90;;;;;;5029703;28;19921;-78
2023/08/05 06:00:19;;;;;;;;;;;21.50;99.90;;;;;;5055190;28;19931;-78
2023/08/05 06:02:45;;;;;;;;;;;21.10;99.90;;;;;;5049511;28;19924;-78
2023/08/05 06:05:11;;;;;;;;;;;20.70;99.90;;;;;;5042117;28;19925;-78
2023/08/05 06:07:37;;;;;;;;;;;20.40;99.90;;;;;;5057140;28;19927;-77
2023/08/05 06:10:03;;;;;;;;;;;20.50;99.90;;;;;;5029249;28;19921;-77
2023/08/05 06:12:32;;;;;;;;;;;20.90;99.90;;;;;;5042400;28;20003;-77
2023/08/05 06:14:59;;;;;;;;;;;21.40;99.90;;;;;;5039972;28;19928;-77
2023/08/05 06:17:25;;;;;;;;;;;21.60;99.90;;;;;;5056474;28;20273;-77
2023/08/05 06:19:51;;;;;;;;;;;21.70;99.90;;;;;;5051827;28;19924;-78
2023/08/05 06:22:16;;;;;;;;;;;21.50;99.90;;;;;;5051735;28;19944;-81
2023/08/05 06:24:42;;;;;;;;;;;21.60;99.90;;;;;;5041733;28;19969;-76
2023/08/05 06:27:07;;;;;;;;;;;21.90;99.90;;;;;;5045132;28;19928;-77
2023/08/05 06:29:33;;;;;;;;;;;22.30;99.90;;;;;;5040983;28;19920;-79
2023/08/05 06:31:59;;;;;;;;;;;22.80;99.90;;;;;;5036853;28;19944;-77
2023/08/05 06:34:24;;;;;;;;;;;23.30;99.90;;;;;;5040673;28;19924;-77
2023/08/05 06:36:50;;;;;;;;;;;23.60;99.90;;;;;;5017547;28;19931;-77
2023/08/05 06:39:15;;;;;;;;;;;23.70;99.90;;;;;;5043940;28;19921;-77
2023/08/05 06:41:41;;;;;;;;;;;23.70;99.90;;;;;;5066195;28;19921;-77
2023/08/05 06:44:06;;;;;;;;;;;23.70;99.90;;;;;;5020679;28;20404;-77
2023/08/05 06:46:32;;;;;;;;;;;23.80;99.50;;;;;;5066860;28;19921;-77
2023/08/05 06:48:58;;;;;;;;;;;23.80;99.90;;;;;;5057468;28;20382;-77
2023/08/05 06:51:24;;;;;;;;;;;23.90;99.90;;;;;;5051178;28;19928;-76
2023/08/05 06:53:49;;;;;;;;;;;24.30;99.60;;;;;;5044566;28;20385;-76
2023/08/05 06:56:15;;;;;;;;;;;24.90;98.10;;;;;;5068926;28;19920;-76
2023/08/05 06:58:40;;;;;;;;;;;25.40;98.40;;;;;;5055410;28;19920;-77
2023/08/05 07:01:06;;;;;;;;;;;25.70;97.80;;;;;;5076651;28;19920;-77
2023/08/05 07:03:32;;;;;;;;;;;26.20;97.40;;;;;;5025101;28;20376;-76
2023/08/05 07:05:57;;;;;;;;;;;26.50;96.00;;;;;;5045488;28;20507;-76
2023/08/05 07:08:24;;;;;;;;;;;26.90;95.90;;;;;;5064250;28;19927;-76
2023/08/05 07:10:56;;;;;;;;;;;27.00;95.10;;;;;;5056740;28;19931;-77
2023/08/05 07:13:22;;;;;;;;;;;27.20;94.60;;;;;;5046950;28;19920;-76
2023/08/05 07:15:47;;;;;;;;;;;27.30;95.50;;;;;;5052503;28;19927;-77
2023/08/05 07:18:13;;;;;;;;;;;27.40;95.30;;;;;;5027962;28;19943;-76
2023/08/05 07:20:42;;;;;;;;;;;27.30;95.30;;;;;;5037112;28;19920;-79
2023/08/05 07:23:07;;;;;;;;;;;26.70;95.20;;;;;;5049303;28;19960;-78
2023/08/05 07:25:33;;;;;;;;;;;25.80;95.60;;;;;;5056047;28;19920;-78
2023/08/05 07:27:58;;;;;;;;;;;24.90;96.90;;;;;;5067378;28;19921;-78
2023/08/05 07:30:24;;;;;;;;;;;24.30;97.10;;;;;;5022515;28;19980;-78
2023/08/05 07:32:50;;;;;;;;;;;23.70;98.00;;;;;;5047531;28;19921;-77
2023/08/05 07:35:15;;;;;;;;;;;23.00;98.60;;;;;;5064030;28;19983;-78
2023/08/05 07:37:44;;;;;;;;;;;22.70;99.00;;;;;;5042435;28;19927;-79
2023/08/05 07:40:13;;;;;;;;;;;22.20;99.70;;;;;;5028666;28;19991;-77
2023/08/05 07:42:40;;;;;;;;;;;22.00;99.90;;;;;;5039646;28;19939;-78
2023/08/05 07:45:10;;;;;;;;;;;21.80;99.90;;;;;;5055478;28;19967;-78
2023/08/05 07:47:40;;;;;;;;;;;21.90;99.90;;;;;;5060574;28;19921;-80
2023/08/05 07:50:07;;;;;;;;;;;21.80;99.90;;;;;;5023391;28;19924;-78
2023/08/05 07:52:33;;;;;;;;;;;21.70;99.90;;;;;;5037983;28;20393;-79
2023/08/05 07:54:59;;;;;;;;;;;21.50;99.90;;;;;;5032602;28;19921;-77
2023/08/05 07:57:25;;;;;;;;;;;21.40;99.90;;;;;;5047503;28;19967;-78
2023/08/05 07:59:52;;;;;;;;;;;21.40;99.90;;;;;;5018806;28;19954;-79
2023/08/05 08:02:17;;;;;;;;;;;21.40;99.90;;;;;;5041373;28;19982;-79
2023/08/05 08:04:44;;;;;;;;;;;21.70;99.90;;;;;;5036426;28;19921;-78
2023/08/05 08:07:10;;;;;;;;;;;21.70;99.90;;;;;;5056208;28;19921;-78
2023/08/05 08:09:36;;;;;;;;;;;22.10;99.90;;;;;;5042916;28;19920;-79
2023/08/05 08:12:01;;;;;;;;;;;22.40;99.90;;;;;;5061221;28;20012;-79
2023/08/05 08:14:27;;;;;;;;;;;22.70;99.90;;;;;;5074784;28;19942;-79
2023/08/05 08:16:53;;;;;;;;;;;23.10;99.90;;;;;;5040656;28;20385;-78
2023/08/05 08:19:18;;;;;;;;;;;23.10;99.90;;;;;;5058063;28;19963;-78
2023/08/05 08:21:47;;;;;;;;;;;23.30;99.90;;;;;;5047411;28;19920;-78
2023/08/05 08:24:13;;;;;;;;;;;23.20;99.50;;;;;;5038056;28;19920;-78
2023/08/05 08:26:38;;;;;;;;;;;23.10;99.80;;;;;;5042562;28;19921;-78
2023/08/05 08:29:04;;;;;;;;;;;23.00;99.90;;;;;;5036006;28;19960;-78
2023/08/05 08:31:31;;;;;;;;;;;22.70;99.90;;;;;;5040189;28;19925;-80
2023/08/05 08:33:57;;;;;;;;;;;22.60;99.90;;;;;;5035617;28;19929;-79
2023/08/05 08:36:23;;;;;;;;;;;22.40;99.90;;;;;;5045896;28;19925;-78
2023/08/05 08:38:49;;;;;;;;;;;22.30;99.90;;;;;;5054572;28;20332;-79
2023/08/05 08:41:15;;;;;;;;;;;22.30;99.90;;;;;;5036828;28;19924;-78
2023/08/05 08:43:42;;;;;;;;;;;22.40;99.90;;;;;;5048093;28;19927;-79
2023/08/05 08:46:08;;;;;;;;;;;22.50;99.90;;;;;;5053549;28;19940;-79
2023/08/05 08:48:37;;;;;;;;;;;22.60;99.90;;;;;;5055765;28;19921;-80
2023/08/05 08:51:03;;;;;;;;;;;22.70;99.70;;;;;;5052773;28;19921;-78
2023/08/05 08:53:29;;;;;;;;;;;22.70;99.90;;;;;;5031586;28;19935;-79
2023/08/05 08:55:55;;;;;;;;;;;22.80;99.70;;;;;;5050884;28;19967;-80
2023/08/05 08:58:21;;;;;;;;;;;22.80;99.80;;;;;;5059988;28;19920;-82
2023/08/05 09:00:47;;;;;;;;;;;22.80;99.80;;;;;;5039131;28;20003;-79
2023/08/05 09:03:13;;;;;;;;;;;23.00;99.90;;;;;;5052874;28;20357;-80
2023/08/05 09:05:38;;;;;;;;;;;23.60;99.70;;;;;;5043181;28;19920;-80
2023/08/05 09:08:04;;;;;;;;;;;24.30;99.10;;;;;;5038741;28;19927;-80
2023/08/05 09:10:30;;;;;;;;;;;24.70;97.70;;;;;;5063353;28;19935;-79
2023/08/05 09:13:00;;;;;;;;;;;24.70;97.90;;;;;;5049785;28;19920;-81
2023/08/05 09:15:33;;;;;;;;;;;24.30;98.20;;;;;;5039237;28;20289;-78
2023/08/05 09:17:58;;;;;;;;;;;24.20;98.90;;;;;;5051836;28;21561;-79
2023/08/05 09:20:24;;;;;;;;;;;24.10;99.10;;;;;;5037986;28;20241;-77
2023/08/05 09:22:57;;;;;;;;;;;23.90;98.90;;;;;;5059458;28;19924;-77
2023/08/05 09:25:25;;;;;;;;;;;23.80;98.90;;;;;;5052420;28;19971;-78
2023/08/05 09:27:53;;;;;;;;;;;23.60;98.50;;;;;;5030326;28;19944;-80
2023/08/05 09:30:23;;;;;;;;;;;23.60;98.70;;;;;;5039668;28;19921;-79
2023/08/05 09:32:49;;;;;;;;;;;23.70;98.70;;;;;;5046408;28;19921;-79
2023/08/05 09:35:15;;;;;;;;;;;23.80;99.00;;;;;;5046319;28;19935;-78
2023/08/05 09:37:48;;;;;;;;;;;24.30;98.90;;;;;;5025641;28;19974;-78
2023/08/05 09:40:16;;;;;;;;;;;24.70;98.10;;;;;;5039174;28;19925;-78
2023/08/05 09:42:42;;;;;;;;;;;25.20;96.90;;;;;;5032472;28;19920;-78
2023/08/05 09:45:12;;;;;;;;;;;25.40;96.40;;;;;;5032255;28;19925;-79
2023/08/05 09:47:38;;;;;;;;;;;25.80;97.10;;;;;;5046166;28;19924;-78
2023/08/05 09:50:07;;;;;;;;;;;26.10;96.40;;;;;;5044721;28;19927;-78
2023/08/05 09:52:33;;;;;;;;;;;26.20;96.20;;;;;;5021249;28;20366;-79
2023/08/05 09:54:59;;;;;;;;;;;26.00;96.10;;;;;;5051781;28;19970;-78
2023/08/05 09:57:25;;;;;;;;;;;25.80;96.20;;;;;;5020597;28;19932;-80
2023/08/05 09:59:53;;;;;;;;;;;25.60;96.20;;;;;;5046800;28;19979;-82
2023/08/05 10:02:22;;;;;;;;;;;25.50;96.10;;;;;;5068965;28;19971;-80
2023/08/05 10:04:51;;;;;;;;;;;25.20;95.30;;;;;;5036050;28;20016;-83
2023/08/05 10:07:17;;;;;;;;;;;24.90;95.70;;;;;;5033015;28;19921;-82
2023/08/05 10:09:43;;;;;;;;;;;24.80;96.40;;;;;;5028849;28;19999;-82
2023/08/05 10:12:09;;;;;;;;;;;24.80;95.70;;;;;;5036321;28;19995;-80
2023/08/05 10:14:35;;;;;;;;;;;24.50;95.80;;;;;;5031615;28;19977;-82
2023/08/05 10:17:00;;;;;;;;;;;24.30;96.00;;;;;;5018728;28;19921;-81
2023/08/05 10:19:35;;;;;;;;;;;24.40;96.40;;;;;;5061488;28;19925;-82
2023/08/05 10:22:09;;;;;;;;;;;24.30;96.60;;;;;;5037706;28;19928;-82
2023/08/05 10:24:51;;;;;;;;;;;24.30;96.00;;;;;;5026689;28;20345;-82
2023/08/05 10:27:16;;;;;;;;;;;24.20;96.60;;;;;;5034638;28;19921;-81
2023/08/05 10:29:52;;;;;;;;;;;24.20;97.00;;;;;;5034085;28;20025;-81
2023/08/05 10:32:27;;;;;;;;;;;24.10;96.60;;;;;;5050220;28;19928;-82
2023/08/05 10:35:11;;;;;;;;;;;24.00;96.80;;;;;;5016904;28;19991;-82
2023/08/05 10:37:49;;;;;;;;;;;23.90;96.50;;;;;;5034574;28;19920;-82
2023/08/05 10:40:36;;;;;;;;;;;24.00;96.80;;;;;;5043317;28;19924;-82
2023/08/05 10:43:01;;;;;;;;;;;24.10;97.20;;;;;;5022309;28;19994;-80
2023/08/05 10:45:27;;;;;;;;;;;24.10;97.20;;;;;;5037959;28;20382;-82
2023/08/05 10:47:53;;;;;;;;;;;24.10;96.90;;;;;;5017438;28;19932;-81
2023/08/05 10:50:18;;;;;;;;;;;23.90;97.20;;;;;;5022474;28;20379;-81
2023/08/05 10:52:44;;;;;;;;;;;23.80;97.40;;;;;;5042527;28;19986;-81
2023/08/05 10:55:11;;;;;;;;;;;23.60;97.70;;;;;;5029556;28;20297;-81
2023/08/05 10:57:40;;;;;;;;;;;23.60;97.20;;;;;;5033232;28;19933;-82
2023/08/05 11:00:07;;;;;;;;;;;23.70;97.60;;;;;;5055796;28;20328;-82
2023/08/05 11:02:33;;;;;;;;;;;23.50;97.30;;;;;;5022630;28;19931;-79
2023/08/05 11:05:08;;;;;;;;;;;23.50;97.60;;;;;;5042258;28;19920;-79
2023/08/05 11:07:38;;;;;;;;;;;23.30;97.70;;;;;;5051661;28;20335;-81
2023/08/05 11:10:04;;;;;;;;;;;23.20;98.50;;;;;;5027877;28;19927;-80
2023/08/05 11:12:29;;;;;;;;;;;23.10;98.60;;;;;;5041359;28;20015;-82
2023/08/05 11:14:56;;;;;;;;;;;23.20;98.30;;;;;;5059911;28;19979;-74
2023/08/05 11:17:22;;;;;;;;;;;23.30;98.50;;;;;;5025497;28;19921;-72
2023/08/05 11:19:54;;;;;;;;;;;23.40;98.30;;;;;;5052595;28;19921;-72
2023/08/05 11:22:26;;;;;;;;;;;23.50;98.40;;;;;;5056134;28;19970;-73
2023/08/05 11:24:58;;;;;;;;;;;23.60;98.10;;;;;;5054183;28;19977;-71
2023/08/05 11:27:34;;;;;;;;;;;23.50;98.20;;;;;;5056998;28;19935;-73
2023/08/05 11:30:18;;;;;;;;;;;23.50;98.40;;;;;;5037100;28;19921;-72
2023/08/05 11:33:02;;;;;;;;;;;23.50;98.00;;;;;;5057915;28;20343;-72
2023/08/05 11:35:28;;;;;;;;;;;23.40;98.00;;;;;;5056027;28;19920;-72
2023/08/05 11:37:53;;;;;;;;;;;23.30;98.30;;;;;;5055964;28;19920;-75
2023/08/05 11:40:19;;;;;;;;;;;23.30;98.70;;;;;;5042480;28;20275;-73
2023/08/05 11:42:45;;;;;;;;;;;23.30;98.70;;;;;;5051717;28;19924;-72
2023/08/05 11:45:12;;;;;;;;;;;23.20;98.50;;;;;;5048299;28;20258;-74
2023/08/05 11:47:38;;;;;;;;;;;23.20;98.80;;;;;;5072483;28;19920;-74
2023/08/05 11:50:04;;;;;;;;;;;23.20;98.60;;;;;;5043488;28;19947;-73
2023/08/05 11:52:30;;;;;;;;;;;23.20;98.60;;;;;;5051546;28;19963;-74
2023/08/05 11:54:56;;;;;;;;;;;23.20;99.20;;;;;;5051299;28;19928;-74
2023/08/05 11:57:22;;;;;;;;;;;23.10;98.70;;;;;;5060916;28;19924;-74
2023/08/05 11:59:48;;;;;;;;;;;23.20;99.00;;;;;;5061432;28;20259;-74
2023/08/05 12:02:14;;;;;;;;;;;23.20;98.60;;;;;;5062598;28;19928;-74
2023/08/05 12:04:49;;;;;;;;;;;23.20;98.60;;;;;;5052339;28;19917;-73
2023/08/05 12:07:19;;;;;;;;;;;23.00;99.20;;;;;;5035682;28;20401;-74
2023/08/05 12:10:02;;;;;;;;;;;23.10;99.00;;;;;;5068173;28;19932;-73
2023/08/05 12:12:28;;;;;;;;;;;23.00;99.00;;;;;;5055359;28;19944;-74
2023/08/05 12:15:06;;;;;;;;;;;22.90;99.00;;;;;;5036187;28;19921;-73
2023/08/05 12:17:32;;;;;;;;;;;22.90;98.90;;;;;;5053461;28;20286;-74
2023/08/05 12:19:58;;;;;;;;;;;22.70;98.60;;;;;;5048427;28;19921;-73
2023/08/05 12:22:23;;;;;;;;;;;22.60;98.80;;;;;;5040206;28;19920;-80
2023/08/05 12:24:49;;;;;;;;;;;22.50;99.20;;;;;;5056998;28;19943;-73
2023/08/05 12:27:15;;;;;;;;;;;22.60;99.30;;;;;;5066927;28;19924;-74
2023/08/05 12:29:41;;;;;;;;;;;22.60;99.40;;;;;;5046996;28;19928;-73
2023/08/05 12:32:07;;;;;;;;;;;22.70;99.20;;;;;;5029568;28;19924;-77
2023/08/05 12:34:32;;;;;;;;;;;22.60;99.40;;;;;;5032647;28;20258;-75
2023/08/05 12:36:58;;;;;;;;;;;22.60;99.70;;;;;;5067214;28;20338;-74
2023/08/05 12:39:23;;;;;;;;;;;22.60;99.70;;;;;;5048193;28;19974;-74
2023/08/05 12:41:49;;;;;;;;;;;22.50;99.90;;;;;;5067383;28;19986;-74
2023/08/05 12:44:14;;;;;;;;;;;22.40;99.90;;;;;;5051299;28;19928;-73
2023/08/05 12:46:40;;;;;;;;;;;22.20;99.90;;;;;;5028181;28;20365;-73
2023/08/05 12:49:05;;;;;;;;;;;22.10;99.90;;;;;;5059089;28;19927;-71
2023/08/05 12:51:31;;;;;;;;;;;22.00;99.90;;;;;;5056254;28;19921;-74
2023/08/05 18:37:19;;;;;;;;;;;15.90;99.90;;;;;;5144881;27;19933;-81
2023/08/05 18:39:45;;;;;;;;;;;15.60;99.90;;;;;;5125717;27;19928;-81
2023/08/05 18:42:11;;;;;;;;;;;15.60;99.90;;;;;;5108482;28;20308;-79
2023/08/05 18:44:37;;;;;;;;;;;15.60;99.90;;;;;;5158544;27;20396;-80
2023/08/05 18:47:02;;;;;;;;;;;15.60;99.90;;;;;;5126778;28;19928;-81
2023/08/05 18:49:28;;;;;;;;;;;15.60;99.90;;;;;;5127518;28;19997;-79
2023/08/05 18:51:53;;;;;;;;;;;15.50;99.90;;;;;;5128199;28;20021;-78
2023/08/05 18:54:19;;;;;;;;;;;15.50;99.90;;;;;;5128563;28;19927;-80
2023/08/05 18:56:45;;;;;;;;;;;15.50;99.90;;;;;;5128135;27;20301;-80
2023/08/05 18:59:11;;;;;;;;;;;15.50;99.90;;;;;;5129503;27;20388;-81
2023/08/05 19:01:37;;;;;;;;;;;15.50;99.90;;;;;;5128028;27;20445;-82
2023/08/05 19:04:03;;;;;;;;;;;15.50;99.90;;;;;;5127687;28;19923;-80
2023/08/05 19:06:28;;;;;;;;;;;15.50;99.90;;;;;;5124820;27;19928;-82
2023/08/05 19:08:54;;;;;;;;;;;15.50;99.90;;;;;;5127212;27;20010;-80
2023/08/05 19:11:19;;;;;;;;;;;15.60;99.90;;;;;;5127027;28;19928;-79
2023/08/05 19:13:45;;;;;;;;;;;15.60;99.90;;;;;;5109930;28;20290;-80
2023/08/05 19:16:10;;;;;;;;;;;15.60;99.90;;;;;;5108965;28;19938;-79
2023/08/05 19:18:36;;;;;;;;;;;15.60;99.90;;;;;;5125064;28;20577;-79
2023/08/05 19:21:03;;;;;;;;;;;15.60;99.90;;;;;;5127938;27;20002;-79